createdAt,value
2022-08-12T00:00:03.148Z,19.20
2022-08-12T00:02:49.900Z,19.02
2022-08-12T00:05:35.842Z,19.01
2022-08-12T00:08:30.837Z,19.08
2022-08-12T00:11:22.682Z,19.13
2022-08-12T00:14:09.093Z,19.23
2022-08-12T00:16:56.306Z,19.40
2022-08-12T00:19:42.253Z,19.46
2022-08-12T00:22:28.872Z,19.39
2022-08-12T00:25:21.944Z,19.40
2022-08-12T00:28:28.282Z,19.37
2022-08-12T00:31:14.568Z,19.36
2022-08-12T00:34:00.487Z,19.32
2022-08-12T00:36:50.240Z,19.30
2022-08-12T00:39:37.100Z,19.35
2022-08-12T00:42:10.712Z,19.28
2022-08-12T00:44:45.480Z,19.27
2022-08-12T00:47:25.312Z,19.22
2022-08-12T00:49:55.413Z,19.13
2022-08-12T00:52:23.448Z,19.13
2022-08-12T00:54:58.857Z,19.11
2022-08-12T00:57:31.327Z,19.09
2022-08-12T01:00:10.614Z,19.07
2022-08-12T01:02:48.782Z,19.01
2022-08-12T01:05:41.673Z,18.88
2022-08-12T01:08:27.877Z,18.85
2022-08-12T01:11:14.678Z,18.66
2022-08-12T01:13:47.282Z,18.75
2022-08-12T01:16:18.174Z,18.51
2022-08-12T01:18:46.035Z,18.25
2022-08-12T01:21:26.600Z,18.11
2022-08-12T01:24:31.368Z,18.03
2022-08-12T01:27:01.264Z,17.99
2022-08-12T01:29:33.138Z,17.95
2022-08-12T01:32:05.499Z,17.90
2022-08-12T01:34:37.602Z,17.79
2022-08-12T01:37:09.794Z,17.76
2022-08-12T01:40:35.376Z,17.74
2022-08-12T01:42:46.125Z,17.76
2022-08-12T01:45:14.593Z,17.76
2022-08-12T01:48:05.414Z,17.77
2022-08-12T01:51:01.518Z,17.83
2022-08-12T01:53:58.657Z,17.80
2022-08-12T01:56:27.017Z,17.82
2022-08-12T01:59:16.962Z,17.81
2022-08-12T02:01:45.603Z,17.73
2022-08-12T02:05:05.063Z,17.81
2022-08-12T02:08:36.273Z,17.56
2022-08-12T02:11:22.862Z,17.53
2022-08-12T02:14:11.301Z,17.51
2022-08-12T02:16:56.770Z,17.50
2022-08-12T02:19:54.652Z,17.51
2022-08-12T02:22:31.453Z,17.47
2022-08-12T02:25:11.038Z,17.41
2022-08-12T02:27:47.617Z,17.42
2022-08-12T02:30:19.365Z,17.36
2022-08-12T02:32:50.944Z,17.72
2022-08-12T02:35:23.923Z,17.78
2022-08-12T02:37:56.288Z,17.73
2022-08-12T02:40:25.600Z,17.53
2022-08-12T02:42:55.740Z,17.43
2022-08-12T02:45:38.553Z,17.37
2022-08-12T02:48:10.517Z,17.47
2022-08-12T02:50:45.462Z,17.42
2022-08-12T02:53:13.459Z,17.52
2022-08-12T02:55:41.057Z,17.57
2022-08-12T02:58:12.423Z,17.61
2022-08-12T03:00:43.326Z,17.57
2022-08-12T03:03:13.866Z,17.58
2022-08-12T03:06:04.487Z,17.60
2022-08-12T03:08:35.869Z,17.40
2022-08-12T03:11:17.845Z,17.05
2022-08-12T03:13:53.654Z,16.80
2022-08-12T03:16:21.992Z,16.78
2022-08-12T03:18:51.397Z,16.71
2022-08-12T03:21:55.562Z,16.62
2022-08-12T03:24:09.209Z,16.44
2022-08-12T03:26:37.653Z,16.41
2022-08-12T03:29:06.954Z,16.40
2022-08-12T03:31:34.659Z,16.21
2022-08-12T03:34:12.622Z,15.93
2022-08-12T03:36:42.120Z,15.87
2022-08-12T03:39:37.027Z,15.93
2022-08-12T03:42:17.077Z,15.99
2022-08-12T03:45:20.435Z,15.95
2022-08-12T03:48:18.587Z,15.89
2022-08-12T03:51:06.181Z,15.82
2022-08-12T03:53:52.656Z,15.62
2022-08-12T03:56:38.841Z,15.83
2022-08-12T03:59:26.052Z,15.55
2022-08-12T04:01:57.576Z,15.91
2022-08-12T04:04:33.968Z,15.98
2022-08-12T04:07:03.256Z,16.01
2022-08-12T04:09:31.385Z,15.96
2022-08-12T04:12:17.237Z,15.85
2022-08-12T04:14:44.808Z,15.66
2022-08-12T04:17:13.171Z,15.68
2022-08-12T04:19:40.812Z,15.68
2022-08-12T04:22:09.480Z,15.81
2022-08-12T04:24:40.749Z,15.86
2022-08-12T04:27:12.598Z,15.93
2022-08-12T04:30:30.340Z,16.02
2022-08-12T04:32:28.537Z,15.97
2022-08-12T04:34:56.427Z,16.00
2022-08-12T04:37:23.967Z,16.02
2022-08-12T04:39:52.929Z,16.02
2022-08-12T04:42:21.094Z,16.08
2022-08-12T04:44:48.837Z,16.06
2022-08-12T04:47:17.201Z,16.06
2022-08-12T04:49:46.640Z,16.04
2022-08-12T04:52:14.123Z,16.09
2022-08-12T04:54:43.805Z,15.97
2022-08-12T04:57:11.390Z,16.02
2022-08-12T04:59:48.444Z,16.04
2022-08-12T05:02:21.635Z,16.33
2022-08-12T05:04:51.938Z,16.93
2022-08-12T05:07:20.539Z,17.23
2022-08-12T05:10:00.228Z,17.55
2022-08-12T05:12:38.091Z,17.91
2022-08-12T05:15:19.484Z,18.70
2022-08-12T05:17:55.955Z,19.88
2022-08-12T05:20:26.062Z,21.39
2022-08-12T05:23:23.872Z,22.74
2022-08-12T05:25:52.322Z,24.00
2022-08-12T05:28:19.693Z,24.76
2022-08-12T05:30:48.703Z,25.19
2022-08-12T05:33:16.035Z,25.87
2022-08-12T05:35:45.376Z,26.88
2022-08-12T05:38:33.187Z,26.18
2022-08-12T05:41:01.690Z,25.46
2022-08-12T05:43:29.692Z,25.26
2022-08-12T05:45:57.108Z,25.77
2022-08-12T05:48:24.592Z,26.26
2022-08-12T05:50:53.151Z,25.90
2022-08-12T05:53:20.508Z,26.36
2022-08-12T05:55:48.814Z,26.87
2022-08-12T05:58:16.191Z,25.93
2022-08-12T06:00:43.605Z,26.07
2022-08-12T06:03:12.016Z,24.52
2022-08-12T06:05:43.102Z,24.56
2022-08-12T06:08:22.312Z,26.00
2022-08-12T06:10:50.272Z,25.46
2022-08-12T06:13:28.409Z,25.06
2022-08-12T06:16:10.542Z,24.70
2022-08-12T06:18:39.995Z,26.00
2022-08-12T06:21:12.563Z,26.79
2022-08-12T06:23:42.692Z,27.59
2022-08-12T06:26:12.802Z,25.92
2022-08-12T06:28:43.777Z,25.74
2022-08-12T06:31:26.975Z,26.33
2022-08-12T06:34:52.921Z,25.75
2022-08-12T06:36:43.185Z,26.47
2022-08-12T06:39:15.223Z,25.74
2022-08-12T06:42:31.517Z,26.17
2022-08-12T06:44:50.413Z,27.15
2022-08-12T06:47:19.522Z,27.86
2022-08-12T06:49:48.481Z,27.24
2022-08-12T06:52:17.252Z,26.29
2022-08-12T06:54:45.719Z,26.68
2022-08-12T06:58:06.220Z,26.77
2022-08-12T07:00:00.510Z,26.96
2022-08-12T07:02:27.826Z,26.64
2022-08-12T07:04:55.230Z,26.04
2022-08-12T07:07:22.686Z,26.83
2022-08-12T07:10:06.559Z,27.36
2022-08-12T07:12:35.992Z,27.20
2022-08-12T07:15:03.714Z,27.48
2022-08-12T07:17:37.272Z,28.19
2022-08-12T07:20:09.851Z,27.90
2022-08-12T07:22:37.708Z,28.26
2022-08-12T07:25:24.051Z,27.99
2022-08-12T07:27:54.820Z,29.11
2022-08-12T07:30:23.261Z,29.16
2022-08-12T07:32:51.634Z,29.16
2022-08-12T07:35:20.276Z,29.25
2022-08-12T07:37:50.183Z,29.39
2022-08-12T07:40:18.732Z,29.78
2022-08-12T07:42:46.320Z,29.90
2022-08-12T07:45:14.585Z,29.57
2022-08-12T07:47:43.494Z,29.09
2022-08-12T07:50:13.484Z,29.83
2022-08-12T07:52:43.397Z,30.20
2022-08-12T07:55:11.728Z,30.78
2022-08-12T07:57:59.188Z,30.66
2022-08-12T08:00:28.059Z,31.31
2022-08-12T08:02:55.674Z,30.53
2022-08-12T08:05:25.801Z,30.65
2022-08-12T08:07:55.587Z,30.99
2022-08-12T08:10:23.191Z,31.21
2022-08-12T08:12:53.528Z,31.82
2022-08-12T08:15:38.662Z,31.53
2022-08-12T08:18:25.808Z,31.85
2022-08-12T08:20:53.521Z,32.31
2022-08-12T08:23:21.075Z,31.55
2022-08-12T08:25:50.086Z,31.83
2022-08-12T08:28:17.648Z,31.38
2022-08-12T08:30:47.923Z,30.88
2022-08-12T08:34:01.589Z,30.66
2022-08-12T08:36:06.852Z,30.24
2022-08-12T08:38:58.298Z,30.96
2022-08-12T08:42:16.789Z,32.03
2022-08-12T08:44:36.410Z,32.13
2022-08-12T08:47:05.651Z,31.45
2022-08-12T08:49:35.166Z,31.05
2022-08-12T08:52:08.378Z,31.51
2022-08-12T08:54:37.635Z,31.65
2022-08-12T08:57:08.063Z,31.66
2022-08-12T08:59:35.886Z,31.45
2022-08-12T09:02:03.565Z,30.93
2022-08-12T09:05:13.859Z,30.51
2022-08-12T09:10:09.325Z,30.92
2022-08-12T09:13:16.199Z,32.36
2022-08-12T09:15:56.079Z,32.51
2022-08-12T09:21:13.987Z,31.91
2022-08-12T09:23:59.062Z,31.43
2022-08-12T09:26:30.593Z,31.65
2022-08-12T09:29:00.402Z,31.22
2022-08-12T09:32:07.182Z,30.63
2022-08-12T09:34:26.467Z,30.75
2022-08-12T09:37:00.202Z,32.31
2022-08-12T09:40:04.395Z,32.78
2022-08-12T09:42:54.355Z,32.57
2022-08-12T09:46:11.466Z,31.94
2022-08-12T09:48:21.988Z,32.01
2022-08-12T09:50:52.113Z,32.61
2022-08-12T09:53:29.527Z,32.09
2022-08-12T09:56:57.301Z,31.47
2022-08-12T09:59:00.551Z,31.11
2022-08-12T10:01:35.244Z,30.85
2022-08-12T10:04:19.872Z,31.03
2022-08-12T10:06:53.923Z,30.87
2022-08-12T10:09:28.774Z,32.13
2022-08-12T10:12:32.918Z,32.40
2022-08-12T10:15:01.876Z,32.23
2022-08-12T10:17:29.790Z,32.26
2022-08-12T10:19:59.887Z,32.78
2022-08-12T10:22:36.597Z,32.67
2022-08-12T10:26:35.905Z,33.97
2022-08-12T10:28:33.740Z,32.99
2022-08-12T10:31:01.678Z,34.53
2022-08-12T10:33:54.816Z,33.84
2022-08-12T10:36:40.047Z,31.63
2022-08-12T10:40:00.114Z,31.79
2022-08-12T10:42:15.779Z,33.91
2022-08-12T10:44:48.446Z,32.95
2022-08-12T10:47:26.062Z,31.65
2022-08-12T10:50:28.518Z,30.63
2022-08-12T10:52:57.291Z,31.27
2022-08-12T10:55:26.064Z,31.02
2022-08-12T10:58:14.588Z,31.92
2022-08-12T11:00:55.543Z,30.79
2022-08-12T11:04:25.447Z,32.00
2022-08-12T11:07:07.086Z,33.64
2022-08-12T11:09:07.297Z,34.94
2022-08-12T11:12:35.332Z,34.99
2022-08-12T11:14:50.034Z,35.79
2022-08-12T11:17:43.877Z,31.87
2022-08-12T11:20:03.564Z,32.10
2022-08-12T11:22:32.332Z,33.13
2022-08-12T11:24:59.955Z,33.71
2022-08-12T11:27:29.528Z,32.55
2022-08-12T11:30:02.263Z,31.87
2022-08-12T11:32:38.618Z,32.24
2022-08-12T11:35:07.374Z,32.87
2022-08-12T11:37:57.887Z,32.32
2022-08-12T11:40:24.750Z,30.19
2022-08-12T11:42:53.141Z,31.43
2022-08-12T11:45:20.719Z,31.55
2022-08-12T11:47:49.282Z,32.01
2022-08-12T11:50:32.079Z,32.90
2022-08-12T11:52:59.964Z,34.41
2022-08-12T11:55:29.442Z,35.02
2022-08-12T11:58:51.087Z,34.46
2022-08-12T12:03:43.807Z,31.22
2022-08-12T12:06:16.937Z,31.37
2022-08-12T12:08:50.544Z,30.73
2022-08-12T12:11:18.884Z,29.69
2022-08-12T12:14:08.582Z,29.16
2022-08-12T12:16:38.326Z,29.99
2022-08-12T12:19:10.032Z,28.97
2022-08-12T12:21:47.311Z,28.42
2022-08-12T12:24:22.141Z,28.08
2022-08-12T12:27:00.931Z,28.02
2022-08-12T12:30:19.642Z,28.46
2022-08-12T12:32:29.074Z,28.55
2022-08-12T12:35:14.131Z,28.26
2022-08-12T12:38:03.615Z,28.67
2022-08-12T12:40:34.372Z,28.43
2022-08-12T12:43:05.188Z,28.02
2022-08-12T12:45:33.966Z,28.62
2022-08-12T12:48:06.065Z,29.91
2022-08-12T12:50:51.262Z,30.98
2022-08-12T12:54:06.358Z,31.01
2022-08-12T12:56:15.467Z,31.54
2022-08-12T12:58:43.900Z,32.57
2022-08-12T13:01:26.599Z,32.29
2022-08-12T13:04:01.862Z,30.94
2022-08-12T13:06:31.728Z,29.88
2022-08-12T13:09:02.680Z,29.05
2022-08-12T13:11:41.874Z,28.45
2022-08-12T13:14:28.764Z,28.43
2022-08-12T13:17:02.397Z,28.70
2022-08-12T13:19:38.769Z,28.47
2022-08-12T13:22:19.942Z,28.77
2022-08-12T13:24:55.736Z,29.09
2022-08-12T13:27:35.616Z,28.95
2022-08-12T13:30:13.037Z,29.13
2022-08-12T13:32:42.572Z,29.55
2022-08-12T13:35:20.161Z,29.72
2022-08-12T13:37:59.253Z,29.63
2022-08-12T13:40:34.617Z,28.90
2022-08-12T13:43:06.857Z,29.23
2022-08-12T13:45:35.679Z,29.42
2022-08-12T13:48:08.230Z,28.98
2022-08-12T13:50:39.045Z,28.74
2022-08-12T13:53:24.371Z,28.47
2022-08-12T13:55:59.585Z,28.68
2022-08-12T13:58:30.543Z,28.30
2022-08-12T14:00:59.510Z,28.50
2022-08-12T14:03:28.657Z,28.30
2022-08-12T14:06:15.797Z,28.61
2022-08-12T14:08:43.830Z,28.57
2022-08-12T14:11:13.234Z,28.43
2022-08-12T14:14:03.404Z,28.41
2022-08-12T14:16:46.815Z,28.59
2022-08-12T14:19:22.223Z,28.44
2022-08-12T14:21:59.847Z,28.00
2022-08-12T14:24:40.248Z,28.05
2022-08-12T14:27:10.392Z,28.09
2022-08-12T14:30:04.098Z,28.13
2022-08-12T14:32:34.608Z,27.98
2022-08-12T14:35:03.909Z,27.94
2022-08-12T14:37:56.508Z,27.85
2022-08-12T14:40:23.410Z,27.88
2022-08-12T14:42:57.105Z,28.45
2022-08-12T14:45:44.643Z,28.44
2022-08-12T14:48:13.595Z,28.64
2022-08-12T14:51:09.448Z,28.97
2022-08-12T14:59:57.588Z,28.89
2022-08-12T15:02:20.655Z,29.35
2022-08-12T15:04:54.695Z,29.03
2022-08-12T15:07:33.427Z,29.09
2022-08-12T15:10:12.192Z,28.78
2022-08-12T15:12:40.498Z,28.43
2022-08-12T15:15:10.268Z,28.32
2022-08-12T15:17:38.833Z,27.95
2022-08-12T15:20:32.010Z,27.61
2022-08-12T15:22:56.506Z,27.78
2022-08-12T15:25:28.681Z,27.98
2022-08-12T15:28:03.937Z,28.14
2022-08-12T15:30:34.017Z,28.08
2022-08-12T15:33:14.839Z,27.94
2022-08-12T15:35:52.166Z,28.05
2022-08-12T15:38:25.192Z,28.01
2022-08-12T15:40:54.276Z,28.06
2022-08-12T15:43:51.779Z,28.00
2022-08-12T15:46:15.261Z,28.16
2022-08-12T15:48:46.478Z,28.04
2022-08-12T15:51:57.450Z,27.64
2022-08-12T15:54:30.882Z,27.26
2022-08-12T15:57:05.647Z,27.00
2022-08-12T16:00:00.099Z,26.87
2022-08-12T16:02:21.332Z,26.72
2022-08-12T16:04:51.462Z,26.67
2022-08-12T16:07:25.903Z,26.52
2022-08-12T16:10:05.518Z,26.57
2022-08-12T16:12:42.296Z,26.63
2022-08-12T16:15:13.387Z,26.56
2022-08-12T16:18:15.320Z,26.65
2022-08-12T16:20:33.141Z,26.96
2022-08-12T16:23:36.597Z,27.04
2022-08-12T16:26:06.410Z,27.18
2022-08-12T16:28:42.006Z,27.10
2022-08-12T16:31:14.506Z,27.08
2022-08-12T16:33:59.515Z,26.99
2022-08-12T16:36:29.245Z,27.10
2022-08-12T16:38:56.847Z,27.15
2022-08-12T16:41:25.630Z,27.09
2022-08-12T16:43:55.753Z,27.17
2022-08-12T16:46:32.530Z,27.09
2022-08-12T16:49:08.805Z,27.05
2022-08-12T16:51:46.084Z,26.95
2022-08-12T16:54:16.441Z,26.89
2022-08-12T16:56:55.489Z,26.84
2022-08-12T16:59:53.634Z,26.80
2022-08-12T17:02:31.902Z,26.73
2022-08-12T17:05:03.184Z,26.75
2022-08-12T17:07:36.842Z,26.76
2022-08-12T17:10:09.549Z,26.65
2022-08-12T17:12:39.950Z,26.62
2022-08-12T17:15:51.233Z,26.62
2022-08-12T17:18:43.943Z,26.62
2022-08-12T17:20:47.491Z,26.54
2022-08-12T17:23:16.845Z,26.49
2022-08-12T17:25:46.461Z,26.49
2022-08-12T17:28:16.872Z,26.46
2022-08-12T17:30:45.190Z,26.44
2022-08-12T17:33:24.698Z,26.38
2022-08-12T17:35:53.289Z,26.33
2022-08-12T17:38:21.061Z,26.29
2022-08-12T17:40:48.993Z,26.27
2022-08-12T17:43:55.882Z,26.20
2022-08-12T17:46:12.468Z,26.09
2022-08-12T17:48:54.926Z,26.05
2022-08-12T17:51:24.387Z,26.00
2022-08-12T17:54:10.667Z,25.93
2022-08-12T17:56:43.280Z,25.84
2022-08-12T17:59:12.565Z,25.76
2022-08-12T18:01:44.091Z,25.68
2022-08-12T18:04:21.230Z,25.70
2022-08-12T18:06:52.931Z,25.65
2022-08-12T18:09:24.739Z,25.47
2022-08-12T18:12:24.575Z,25.34
2022-08-12T18:15:00.363Z,25.21
2022-08-12T18:17:29.091Z,25.20
2022-08-12T18:20:06.429Z,24.95
2022-08-12T18:22:36.329Z,24.86
2022-08-12T18:26:12.636Z,24.71
2022-08-12T18:28:15.063Z,24.70
2022-08-12T18:30:53.084Z,24.67
2022-08-12T18:33:26.734Z,24.60
2022-08-12T18:35:56.666Z,24.45
2022-08-12T18:38:26.909Z,24.33
2022-08-12T18:41:21.461Z,24.37
2022-08-12T18:44:02.964Z,24.53
2022-08-12T18:46:35.967Z,24.53
2022-08-12T18:49:18.350Z,24.48
2022-08-12T18:51:55.455Z,24.47
2022-08-12T18:54:35.474Z,24.34
2022-08-12T18:57:15.440Z,24.23
2022-08-12T19:00:00.076Z,24.24
2022-08-12T19:02:32.774Z,24.12
2022-08-12T19:05:08.209Z,24.06
2022-08-12T19:07:49.587Z,23.93
2022-08-12T19:10:25.675Z,23.79
2022-08-12T19:13:15.637Z,23.72
2022-08-12T19:15:48.767Z,23.58
2022-08-12T19:18:16.901Z,23.50
2022-08-12T19:20:48.011Z,23.39
2022-08-12T19:23:21.485Z,23.29
2022-08-12T19:26:00.982Z,23.25
2022-08-12T19:28:35.361Z,23.14
2022-08-12T19:31:56.092Z,22.95
2022-08-12T19:34:56.401Z,22.87
2022-08-12T19:37:27.480Z,22.76
2022-08-12T19:40:07.885Z,22.66
2022-08-12T19:42:42.721Z,22.61
2022-08-12T19:45:14.046Z,22.43
2022-08-12T19:47:44.729Z,22.37
2022-08-12T19:50:19.742Z,22.23
2022-08-12T19:52:51.127Z,22.26
2022-08-12T19:55:21.789Z,22.13
2022-08-12T19:58:02.604Z,22.13
2022-08-12T20:00:34.606Z,22.00
2022-08-12T20:03:04.231Z,21.93
2022-08-12T20:06:06.941Z,21.96
2022-08-12T20:08:34.148Z,21.78
2022-08-12T20:12:14.635Z,21.66
2022-08-12T20:14:00.226Z,21.65
2022-08-12T20:16:52.982Z,21.64
2022-08-12T20:19:18.089Z,21.58
2022-08-12T20:21:45.583Z,21.42
2022-08-12T20:24:14.215Z,21.35
2022-08-12T20:26:43.206Z,21.27
2022-08-12T20:29:12.006Z,21.16
2022-08-12T20:31:40.664Z,21.04
2022-08-12T20:34:09.378Z,21.06
2022-08-12T20:36:44.830Z,21.04
2022-08-12T20:39:35.832Z,20.97
2022-08-12T20:42:07.578Z,21.00
2022-08-12T20:44:40.164Z,20.89
2022-08-12T20:47:18.074Z,20.81
2022-08-12T20:49:54.870Z,20.69
2022-08-12T20:52:29.817Z,20.62
2022-08-12T20:54:58.153Z,20.52
2022-08-12T20:57:38.495Z,20.44
2022-08-12T21:00:22.697Z,20.40
2022-08-12T21:03:15.919Z,20.43
2022-08-12T21:06:13.687Z,20.55
2022-08-12T21:08:42.808Z,20.57
2022-08-12T21:11:10.386Z,20.57
2022-08-12T21:13:41.898Z,20.51
2022-08-12T21:16:10.390Z,20.57
2022-08-12T21:18:38.370Z,20.54
2022-08-12T21:21:06.672Z,20.54
2022-08-12T21:23:36.865Z,20.52
2022-08-12T21:26:11.270Z,20.49
2022-08-12T21:28:39.749Z,20.22
2022-08-12T21:32:35.031Z,20.31
2022-08-12T21:34:07.809Z,20.27
2022-08-12T21:36:39.906Z,20.22
2022-08-12T21:39:27.910Z,20.12
2022-08-12T21:42:06.939Z,20.00
2022-08-12T21:45:46.702Z,19.92
2022-08-12T21:47:25.779Z,19.80
2022-08-12T21:50:04.293Z,19.74
2022-08-12T21:52:42.197Z,19.66
2022-08-12T21:55:19.241Z,19.59
2022-08-12T21:57:54.632Z,19.51
2022-08-12T22:00:33.507Z,19.49
2022-08-12T22:04:03.591Z,19.48
2022-08-12T22:06:43.329Z,19.36
2022-08-12T22:09:15.623Z,19.25
2022-08-12T22:11:49.306Z,19.23
2022-08-12T22:14:24.930Z,19.16
2022-08-12T22:16:55.000Z,18.97
2022-08-12T22:19:24.030Z,18.81
2022-08-12T22:21:54.120Z,18.76
2022-08-12T22:24:27.248Z,18.63
2022-08-12T22:27:14.323Z,18.64
2022-08-12T22:30:16.883Z,18.50
2022-08-12T22:32:51.661Z,18.44
2022-08-12T22:35:56.000Z,18.52
2022-08-12T22:38:20.947Z,18.63
2022-08-12T22:40:50.794Z,18.68
2022-08-12T22:44:00.217Z,18.76
2022-08-12T22:46:53.077Z,18.73
2022-08-12T22:49:36.293Z,18.75
2022-08-12T22:52:12.569Z,18.69
2022-08-12T22:55:00.203Z,18.56
2022-08-12T22:57:53.521Z,18.57
2022-08-12T23:00:23.909Z,18.52
2022-08-12T23:02:58.336Z,18.56
2022-08-12T23:05:57.236Z,18.65
2022-08-12T23:08:18.880Z,18.76
2022-08-12T23:10:47.669Z,18.75
2022-08-12T23:13:38.720Z,18.74
2022-08-12T23:16:28.003Z,18.48
2022-08-12T23:19:01.524Z,18.34
2022-08-12T23:22:05.825Z,18.18
2022-08-12T23:24:35.337Z,18.04
2022-08-12T23:27:21.546Z,18.19
2022-08-12T23:30:05.924Z,18.11
2022-08-12T23:32:37.249Z,17.85
2022-08-12T23:35:06.880Z,17.60
2022-08-12T23:37:46.978Z,17.62
2022-08-12T23:40:22.540Z,17.85
2022-08-12T23:42:54.867Z,17.53
2022-08-12T23:45:30.852Z,17.41
2022-08-12T23:48:00.720Z,16.60
2022-08-12T23:50:33.536Z,16.26
2022-08-12T23:53:03.475Z,16.28
2022-08-12T23:55:40.936Z,16.62
2022-08-12T23:58:22.423Z,17.00
